Date,TemperatureHighF,TemperatureAvgF,TemperatureLowF,DewpointHighF,DewpointAvgF,DewpointLowF,HumidityHigh,HumidityAvg,HumidityLow,PressureMaxIn,PressureMinIn,WindSpeedMaxMPH,WindSpeedAvgMPH,GustSpeedMaxMPH,PrecipitationSumIn
2013-1-1,34,32,28,33,30,26,98,94,82,25.48,25.40,6,1,0,0.09
2013-1-2,31,26,22,26,20,17,90,80,64,32.31,24.51,6,1,0,0.05
2013-1-3,36,26,16,26,21,15,95,82,65,32.33,25.48,9,2,0,0.07
2013-1-4,32,29,27,26,24,22,86,81,74,32.29,22.40,14,4,0,0.00
2013-1-5,38,30,22,29,25,20,93,81,66,32.31,23.03,6,1,0,0.08
2013-1-6,39,35,31,33,30,27,92,82,74,32.21,21.60,7,2,0,0.06
2013-1-7,33,30,23,31,27,22,96,88,78,32.26,20.66,6,1,0,0.01
2013-1-8,51,32,18,37,27,17,96,83,56,32.28,20.67,6,0,0,0.10
2013-1-9,45,36,26,45,34,24,99,95,84,32.47,20.64,5,1,0,0.04
2013-1-10,46,35,28,39,33,27,100,91,74,32.27,22.57,6,1,0,0.01
2013-1-11,58,48,37,57,47,34,100,94,84,31.91,20.88,6,0,0,0.14
2013-1-12,67,57,48,61,55,49,100,94,80,32.40,21.56,9,1,0,0.01
2013-1-13,66,58,49,59,55,49,100,90,76,32.40,25.41,5,1,0,0.34
2013-1-14,57,43,34,57,40,31,100,88,76,32.49,23.53,7,2,0,0.06
2013-1-15,35,32,30,33,29,26,97,87,83,32.30,22.36,12,3,0,0.00
2013-1-16,36,34,32,36,34,32,99,99,97,32.25,21.65,5,1,0,0.62
2013-1-17,36,33,29,33,31,28,96,89,82,29.49,22.46,4,1,0,0.00
2013-1-18,35,28,21,28,20,14,94,73,56,25.48,22.37,10,3,0,0.00
2013-1-19,55,40,24,31,24,17,78,55,37,25.44,25.40,12,3,0,0.00
2013-1-20,45,39,26,34,24,14,70,56,41,25.45,25.39,14,6,0,0.00
2013-1-21,33,25,14,21,16,4,89,69,56,25.48,25.42,17,4,0,0.00
2013-1-22,17,11,7,4,2,-1,77,65,53,25.52,25.46,12,4,0,0.00
2013-1-23,19,13,6,14,5,1,89,71,56,25.51,25.45,9,1,0,0.00
2013-1-24,23,17,12,15,10,6,91,75,51,25.53,20.64,6,1,0,0.00
2013-1-25,21,17,12,19,12,5,92,80,63,25.54,22.41,6,1,0,0.00
2013-1-26,29,25,21,26,22,17,94,89,75,32.29,21.51,9,2,0,0.04
2013-1-27,36,28,19,24,20,15,86,72,59,32.29,20.07,6,1,0,0.09
2013-1-28,51,42,30,51,41,24,100,96,74,30.89,20.63,9,2,0,0.57
2013-1-29,69,56,50,60,54,50,100,90,67,32.20,20.61,6,1,0,0.07
2013-1-30,72,57,46,60,54,46,100,89,66,32.28,22.52,20,2,0,1.13
2013-1-31,46,29,23,46,25,15,98,85,65,32.33,20.62,20,7,0,0.08
2013-2-1,24,15,7,22,10,4,94,82,73,32.31,22.39,15,4,0,0.00
2013-2-2,25,17,5,24,14,2,96,87,69,32.34,0.00,6,1,0,0.03
2013-2-3,29,25,20,27,22,15,96,90,80,32.43,21.93,13,3,0,0.01
2013-2-4,31,25,19,31,21,15,98,86,68,32.36,20.07,5,1,0,0.01
2013-2-5,36,33,31,35,32,30,100,97,86,32.27,20.33,10,1,0,0.02
2013-2-6,34,30,26,31,29,25,98,94,87,32.29,23.87,4,0,0,0.02
2013-2-7,46,34,24,36,30,24,97,85,67,32.31,22.42,5,1,0,0.13
2013-2-8,39,34,27,38,31,22,98,90,80,28.85,21.61,20,3,0,0.11
2013-2-9,37,28,23,23,21,20,89,77,56,27.66,23.35,9,2,0,0.00
2013-2-10,55,36,18,37,25,16,95,69,39,29.53,21.00,5,1,0,0.08
2013-2-11,62,49,39,52,39,30,99,72,37,32.24,20.02,21,6,0,0.03
2013-2-12,51,41,30,32,28,23,74,61,45,32.47,21.55,19,4,0,0.00
2013-2-13,43,33,27,32,29,24,97,84,62,32.44,21.59,14,1,0,0.02
2013-2-14,45,36,29,35,31,26,92,82,66,32.47,23.15,10,1,0,0.05
2013-2-15,40,36,30,35,32,29,98,88,70,32.25,20.03,5,1,0,0.10
2013-2-16,30,26,22,28,21,14,96,80,65,32.43,22.48,7,1,0,0.03
2013-2-17,23,19,14,20,13,8,91,77,65,32.32,20.07,12,4,0,0.00
2013-2-18,50,30,9,33,20,7,90,70,50,32.30,21.61,5,0,0,0.01
2013-2-19,45,38,27,40,32,20,96,80,59,32.29,20.79,21,6,0,0.17
2013-2-20,26,22,20,21,16,12,87,76,68,25.52,25.26,13,5,0,0.00
2013-2-21,29,23,20,20,17,13,88,76,67,25.53,25.45,10,2,0,0.00
2013-2-22,48,37,24,43,32,17,95,82,71,25.48,22.66,6,1,0,0.05
2013-2-23,56,43,35,45,38,31,97,83,59,30.84,22.41,10,2,0,0.00
2013-2-24,37,31,25,31,26,21,92,83,76,32.36,20.19,15,2,0,0.00
2013-2-25,44,33,21,28,24,19,92,73,54,31.91,20.19,10,2,0,0.00
2013-2-26,43,38,31,38,31,23,95,79,61,32.26,23.83,12,3,0,0.52
2013-2-27,42,39,32,39,37,32,98,94,84,32.29,23.91,11,3,0,0.27
2013-2-28,33,32,32,32,31,29,97,94,90,25.48,25.39,10,3,0,0.07
2013-3-1,34,31,28,31,27,24,96,85,75,25.50,25.41,9,2,0,0.05
2013-3-2,30,27,26,25,23,20,89,84,72,25.50,25.42,6,2,0,0.01
2013-3-3,29,26,24,23,21,16,91,83,72,32.29,20.85,9,3,0,0.00
2013-3-4,40,29,22,24,19,16,92,69,49,25.50,23.11,11,2,0,0.01
2013-3-5,51,37,26,35,27,21,95,70,48,32.29,22.36,10,3,0,0.16
2013-3-6,38,34,31,34,32,30,98,94,85,30.84,20.89,6,1,0,0.41
2013-3-7,42,36,33,34,31,29,100,84,67,25.50,22.34,11,3,0,0.01
2013-3-8,38,34,29,30,28,25,88,78,71,25.48,25.39,9,2,0,0.00
2013-3-9,58,40,23,36,30,22,96,72,42,32.25,23.82,6,1,0,0.00
2013-3-10,74,54,37,42,36,28,82,53,31,29.46,27.11,10,1,0,0.00
2013-3-11,64,57,50,50,40,33,97,55,38,25.45,25.20,10,1,0,0.12
2013-3-12,51,39,36,51,36,30,99,89,77,28.14,23.84,12,4,0,0.13
2013-3-13,37,32,28,32,28,22,97,85,62,25.48,25.39,13,4,0,0.02
2013-3-14,42,31,25,26,21,18,84,69,48,25.51,25.40,17,4,0,0.01
2013-3-15,53,39,23,37,29,20,87,70,54,25.48,25.40,10,2,0,0.00
2013-3-16,60,48,41,53,44,38,100,88,70,25.44,25.38,15,2,0,0.10
2013-3-17,41,36,31,38,29,26,93,78,67,25.48,25.38,10,3,0,0.00
2013-3-18,48,40,34,45,37,27,96,89,73,25.47,22.36,9,3,0,0.97
2013-3-19,48,42,34,47,30,18,98,67,36,25.46,25.38,19,8,0,0.04
2013-3-20,44,35,28,25,19,15,64,53,43,25.48,25.38,17,5,0,0.00
2013-3-21,30,25,21,21,14,10,85,64,51,25.50,25.42,13,4,0,0.00
2013-3-22,43,31,23,24,19,16,75,63,47,25.49,25.41,11,3,0,0.00
2013-3-23,51,36,20,27,23,18,92,62,37,25.48,25.40,11,2,0,0.00
2013-3-24,43,35,30,34,27,22,96,75,52,25.49,25.39,11,3,0,0.08
2013-3-25,36,33,31,34,32,31,98,96,92,25.48,25.41,8,1,0,0.61
2013-3-26,41,35,32,34,32,30,98,88,67,25.48,25.40,8,2,0,0.18
2013-3-27,43,36,31,35,30,27,96,81,63,25.48,25.40,13,4,0,0.01
2013-3-28,43,38,34,32,29,27,79,70,61,25.49,25.40,7,3,0,0.00
2013-3-29,52,44,35,35,31,27,88,63,43,25.47,25.39,10,2,0,0.00
2013-3-30,59,45,30,33,29,26,90,56,33,25.47,25.38,5,1,0,0.00
2013-3-31,50,44,38,49,42,31,98,90,66,25.45,25.38,5,1,0,0.23
2013-4-1,47,42,33,44,34,19,99,75,42,25.45,25.37,11,4,0,0.02
2013-4-2,44,34,26,21,18,15,66,53,38,25.47,25.40,11,2,0,0.00
2013-4-3,45,34,21,24,20,13,92,60,35,29.94,25.40,10,3,0,0.00
2013-4-4,54,39,23,27,21,13,76,50,32,29.93,29.85,5,1,0,0.00
2013-4-5,60,47,31,37,30,24,84,54,36,29.89,29.84,15,3,0,0.00
2013-4-6,64,47,28,29,24,20,77,45,20,29.92,29.84,6,1,0,0.00
2013-4-7,74,63,49,51,44,31,71,50,41,31.23,29.80,22,5,0,0.00
2013-4-8,77,64,49,54,51,47,93,65,44,32.34,26.01,13,2,0,0.00
2013-4-9,83,70,55,61,56,50,84,62,47,32.34,25.99,7,2,0,0.00
2013-4-10,87,73,60,65,58,53,82,61,45,32.25,22.15,16,4,0,0.00
2013-4-11,83,69,54,63,58,52,96,72,46,32.34,21.29,9,1,0,0.00
2013-4-12,73,60,50,62,52,38,99,76,48,32.47,26.94,17,4,0,0.46
2013-4-13,63,51,38,42,37,32,78,59,41,32.29,28.47,13,4,0,0.00
2013-4-14,65,52,35,43,38,32,91,62,42,31.27,20.07,9,1,0,0.00
2013-4-15,66,62,57,52,49,43,78,65,51,31.21,29.80,9,2,0,0.00
2013-4-16,84,67,53,65,57,49,99,73,52,32.34,26.95,14,2,0,0.50
2013-4-17,70,62,57,63,60,57,100,94,80,29.87,25.98,5,1,0,0.01
2013-4-18,88,72,57,67,61,57,98,71,47,31.17,22.15,15,2,0,0.00
2013-4-19,73,60,45,64,53,37,95,77,63,32.27,25.98,16,4,0,0.15
2013-4-20,54,44,37,36,31,26,77,61,42,29.91,26.03,15,6,0,0.00
2013-4-21,56,43,29,31,28,26,91,59,37,29.93,29.83,9,2,0,0.00
2013-4-22,64,52,40,37,32,28,70,48,28,31.63,29.82,12,3,0,0.00
2013-4-23,73,56,37,44,38,33,87,56,34,32.41,29.80,7,1,0,0.00
2013-4-24,77,58,41,61,49,37,95,73,52,31.19,29.78,16,3,0,0.19
2013-4-25,60,47,34,41,36,33,97,69,43,31.23,29.82,10,2,0,0.00
2013-4-26,64,50,36,41,37,34,96,64,37,29.92,29.82,7,1,0,0.00
2013-4-27,76,57,35,46,40,34,94,59,29,32.47,28.25,7,1,0,0.00
2013-4-28,64,58,54,56,50,44,96,75,55,29.89,29.79,22,2,0,0.25
2013-4-29,68,58,52,59,54,49,95,84,72,31.22,29.80,5,1,0,0.01
2013-4-30,76,62,50,60,54,49,99,78,54,32.33,28.30,13,2,0,0.00
2013-5-1,77,65,50,59,52,42,95,66,39,31.19,29.77,15,2,0,0.00
2013-5-2,80,64,46,57,46,39,89,54,37,31.16,21.32,12,2,0,0.00
2013-5-3,76,62,44,48,44,40,92,55,31,29.88,27.46,18,4,0,0.00
2013-5-4,72,60,48,47,41,30,64,50,31,29.88,29.78,11,4,0,0.00
2013-5-5,74,61,49,44,38,31,72,46,24,29.89,29.79,17,4,0,0.00
2013-5-6,68,58,52,55,50,41,94,73,58,32.31,26.79,15,4,0,0.12
2013-5-7,63,59,56,59,57,54,97,91,83,32.32,29.82,10,3,0,0.25
2013-5-8,70,60,52,57,54,52,100,83,58,32.37,29.82,8,1,0,0.23
2013-5-9,76,61,52,63,57,51,100,87,56,32.32,29.83,6,1,0,0.02
2013-5-10,78,63,55,67,60,54,100,90,66,32.50,28.25,9,1,0,0.36
2013-5-11,64,59,52,62,58,50,100,95,84,31.55,24.09,10,2,0,0.64
2013-5-12,55,49,42,50,39,34,96,69,49,29.91,29.82,10,3,0,0.01
2013-5-13,52,44,34,40,35,32,97,74,54,31.24,23.17,12,1,0,0.00
2013-5-14,65,48,30,47,40,30,98,75,47,29.92,29.83,6,1,0,0.01
2013-5-15,87,69,51,68,57,44,87,67,48,29.90,26.94,13,3,0,0.00
2013-5-16,74,65,59,68,62,57,100,89,58,32.48,29.74,6,1,0,0.71
2013-5-17,84,70,60,68,60,51,100,77,34,32.35,25.99,4,1,0,0.00
2013-5-18,82,67,55,70,62,55,99,86,59,32.34,26.59,6,1,0,0.00
2013-5-19,79,69,60,69,64,60,99,86,70,32.35,26.73,6,1,0,0.00
2013-5-20,86,72,60,74,67,59,98,84,63,32.36,25.20,3,0,0,0.00
2013-5-21,86,74,63,75,69,63,100,86,64,32.36,25.98,5,1,0,0.00
2013-5-22,85,70,63,73,66,62,100,87,65,32.44,24.70,9,1,0,0.61
2013-5-23,78,65,59,69,63,59,100,96,70,32.50,24.70,15,1,0,0.53
2013-5-24,59,47,39,59,43,35,99,86,66,32.50,29.81,8,2,0,0.03
2013-5-25,62,47,32,46,39,31,99,76,52,32.32,24.79,12,1,0,0.00
2013-5-26,69,53,34,46,40,33,98,68,37,32.22,26.99,6,1,0,0.00
2013-5-27,66,53,42,55,49,41,97,86,64,32.22,27.39,3,0,0,0.00
2013-5-28,80,69,56,69,62,54,94,79,65,32.35,23.32,4,0,0,0.00
2013-5-29,85,70,59,71,64,58,98,81,58,29.82,24.49,4,0,0,0.00
2013-5-30,88,74,61,74,67,60,99,80,59,32.49,23.84,3,0,0,0.00
2013-5-31,88,75,62,72,68,62,100,79,54,32.36,21.67,3,0,0,0.02
2013-6-1,86,75,65,75,69,65,100,83,64,32.49,26.74,6,1,0,0.04
2013-6-2,77,70,63,71,67,63,100,90,80,32.47,25.03,6,0,0,0.15
2013-6-3,70,65,56,65,62,55,100,91,75,32.36,28.89,7,1,0,0.02
2013-6-4,73,61,47,56,51,45,97,71,50,29.84,25.98,7,1,0,0.01
2013-6-5,84,71,50,70,63,49,96,77,60,32.33,29.78,3,0,0,0.00
2013-6-6,73,67,63,68,66,63,100,96,83,32.28,25.37,3,0,0,0.40
2013-6-7,67,64,61,66,64,60,100,97,88,29.85,25.96,2,0,0,0.15
2013-6-8,75,65,58,66,60,56,96,87,70,32.34,27.92,2,0,0,0.00
2013-6-9,84,72,58,71,65,58,100,82,58,32.35,25.98,3,0,0,0.00
2013-6-10,77,68,64,73,67,64,100,95,83,32.49,25.90,8,0,0,0.20
2013-6-11,77,67,61,71,65,61,100,94,78,31.53,27.91,4,1,0,0.01
2013-6-12,84,74,63,76,70,63,100,89,75,32.36,26.59,3,0,0,0.00
2013-6-13,74,65,59,73,65,59,100,99,94,32.35,26.00,5,0,0,2.15
2013-6-14,74,63,56,64,60,55,100,90,71,32.33,28.32,5,0,0,0.00
2013-6-15,79,65,54,64,59,54,100,82,51,29.87,26.71,3,0,0,0.01
2013-6-16,73,67,62,70,65,60,98,93,86,32.10,29.23,4,0,0,0.03
2013-6-17,81,72,65,74,69,65,99,90,73,32.46,25.98,3,0,0,0.00
2013-6-18,75,68,65,70,67,65,100,96,83,32.50,22.15,3,0,0,0.12
2013-6-19,77,68,61,67,62,58,100,81,61,31.53,27.91,6,1,0,0.00
2013-6-20,82,68,54,68,61,53,100,80,56,31.18,26.00,2,0,0,0.00
2013-6-21,86,71,56,71,63,56,100,80,51,32.47,26.70,4,0,0,0.00
2013-6-22,88,74,60,76,68,60,100,83,61,31.15,26.33,3,0,0,0.00
2013-6-23,89,76,64,76,70,65,100,84,60,29.85,25.92,3,0,0,0.00
2013-6-24,85,75,65,78,71,65,100,87,69,32.36,26.94,7,0,0,0.12
2013-6-25,87,76,67,77,72,67,100,86,68,32.37,26.75,4,0,0,0.00
2013-6-26,80,73,67,76,71,67,100,94,81,32.49,25.92,3,0,0,0.26
2013-6-27,70,68,67,70,68,67,100,100,99,31.22,25.98,3,0,0,0.94
2013-6-28,77,68,64,75,68,64,100,99,90,32.36,26.95,4,0,0,0.81
2013-6-29,76,68,62,71,66,62,100,95,78,32.35,28.87,5,0,0,0.14
2013-6-30,87,74,61,74,68,61,100,84,58,31.51,25.02,4,0,0,0.01
2013-7-1,85,73,66,75,70,66,100,90,66,32.49,25.46,5,0,0,1.12
2013-7-2,84,74,67,75,71,67,100,90,69,32.36,26.75,3,0,0,0.27
2013-7-3,86,76,67,76,71,67,99,86,70,29.84,25.97,3,0,0,0.00
2013-7-4,89,76,68,79,71,68,99,88,64,32.48,25.92,2,0,0,0.00
2013-7-5,84,75,67,77,72,67,100,91,73,29.82,25.98,4,0,0,0.11
2013-7-6,90,77,68,79,73,68,100,87,62,29.84,25.97,4,0,0,0.00
2013-7-7,78,72,67,74,70,67,100,94,81,32.36,25.98,3,0,0,0.39
2013-7-8,82,71,63,75,69,63,100,94,74,29.85,25.02,2,0,0,0.05
2013-7-9,82,72,69,78,72,69,100,98,87,32.36,26.94,3,0,0,0.88
2013-7-10,86,74,66,80,72,66,100,95,77,32.36,26.93,4,0,0,0.93
2013-7-11,76,69,65,71,67,64,100,94,82,32.34,29.82,5,0,0,0.01
2013-7-12,75,66,62,68,64,59,100,92,77,31.54,24.08,6,1,0,0.45
2013-7-13,83,72,61,74,68,61,100,90,72,29.83,26.94,7,1,0,0.04
2013-7-14,90,79,68,77,72,68,98,80,62,32.50,25.97,4,0,0,0.00
2013-7-15,91,78,66,77,72,66,100,86,61,32.48,27.50,3,0,0,0.00
2013-7-16,91,77,68,81,74,68,100,91,70,32.37,28.62,3,0,0,0.00
2013-7-17,91,76,69,81,74,69,100,92,71,32.49,26.92,5,0,0,0.00
2013-7-18,92,79,69,81,76,69,100,89,67,31.14,25.97,3,0,0,0.00
2013-7-19,88,75,70,82,74,70,100,97,79,32.50,25.96,3,0,0,0.54
2013-7-20,83,72,69,78,72,69,100,98,78,32.49,25.97,8,0,0,0.62
2013-7-21,83,73,67,77,71,67,100,96,77,32.35,26.94,3,0,0,0.00
2013-7-22,82,73,69,78,72,69,100,97,85,32.49,25.98,4,0,0,0.25
2013-7-23,84,73,67,75,70,66,100,93,73,29.85,25.98,3,0,0,0.25
2013-7-24,72,67,58,67,62,57,100,87,69,32.50,26.95,7,1,0,0.01
2013-7-25,76,64,55,66,58,55,99,83,61,32.33,26.96,10,1,0,0.00
2013-7-26,81,66,54,68,60,54,100,82,54,32.34,25.98,3,0,0,0.00
2013-7-27,74,66,59,72,65,59,100,98,86,29.88,25.98,2,0,0,0.42
2013-7-28,77,68,58,68,64,56,100,89,67,32.49,29.77,5,0,0,0.51
2013-7-29,74,63,52,64,59,52,100,87,66,29.84,28.27,4,0,0,0.00
2013-7-30,80,68,59,70,64,59,100,86,64,29.85,25.90,4,0,0,0.00
2013-7-31,74,66,61,70,65,61,100,96,83,32.35,29.08,3,0,0,0.02
2013-8-1,79,70,64,75,68,63,100,94,79,31.16,27.46,6,0,0,0.21
2013-8-2,80,69,61,69,65,61,100,87,66,32.43,29.82,3,0,0,0.01
2013-8-3,71,67,64,69,66,64,100,97,90,32.43,29.83,2,0,0,0.20
2013-8-4,77,67,58,65,62,57,100,86,62,32.34,28.92,3,0,0,0.00
2013-8-5,77,64,54,64,59,55,100,85,56,32.47,27.92,3,0,0,0.01
2013-8-6,82,69,58,69,63,58,100,82,57,32.34,30.88,4,0,0,0.00
2013-8-7,88,72,63,79,70,63,100,92,70,32.30,32.30,3,0,0,0.02
2013-8-8,82,72,67,78,71,67,100,98,84,32.30,31.10,2,0,0,0.67
2013-8-11,71,62,69,70,51,-100,99,87,96,31.47,0.00,0,-111,0,0.00
2013-8-12,84,73,66,75,70,66,100,91,68,32.45,25.33,1,0,0,0.01
2013-8-13,77,69,61,75,67,56,100,93,74,32.32,23.89,4,0,0,1.78
2013-8-14,69,59,51,60,55,50,100,86,69,31.51,22.05,3,0,0,0.00
2013-8-15,74,60,51,62,56,51,100,88,58,31.58,22.91,4,0,0,0.00
2013-8-16,80,65,52,66,59,52,100,83,55,31.49,24.22,4,0,0,0.00
2013-8-17,77,66,55,65,60,55,100,82,59,32.28,22.73,4,1,0,0.01
2013-8-18,73,67,62,70,66,62,100,96,85,32.34,25.68,2,0,0,0.14
2013-8-19,80,70,64,74,68,64,100,95,77,31.47,20.62,1,0,0,0.07
2013-8-20,83,70,61,71,65,61,100,88,61,32.18,24.87,3,0,0,0.01
2013-8-21,84,69,61,77,67,61,100,95,77,31.50,21.10,5,0,0,1.49
2013-8-22,82,72,64,77,70,65,100,95,81,32.43,21.10,2,0,0,0.01
2013-8-23,77,70,62,71,67,62,100,92,65,29.77,20.50,7,1,0,0.52
2013-8-24,82,68,58,70,63,58,100,87,59,32.19,24.99,2,0,0,0.00
2013-8-25,82,68,57,70,64,57,100,87,59,32.44,26.87,3,0,0,0.01
2013-8-26,84,69,58,74,66,58,100,90,68,32.23,23.32,4,0,0,0.00
2013-8-27,78,71,65,76,70,65,100,99,94,32.44,24.31,3,0,0,0.11
2013-8-28,77,73,69,77,73,69,100,100,100,32.21,23.32,4,0,0,0.55
2013-8-29,84,76,70,75,72,70,100,89,70,32.33,26.85,9,1,0,0.00
2013-8-30,87,74,65,78,72,65,100,91,71,32.38,24.93,4,0,0,0.01
2013-8-31,84,73,67,76,71,67,100,93,74,32.20,21.10,3,0,0,0.00
2013-9-1,82,72,67,75,70,67,100,94,77,31.57,21.08,4,0,0,0.01
2013-9-2,82,71,66,77,70,66,100,96,78,30.47,21.08,3,0,0,0.78
2013-9-3,76,67,59,68,64,58,100,90,68,32.43,21.49,2,0,0,0.00
2013-9-4,79,63,54,67,59,54,100,89,61,32.43,23.99,3,0,0,0.00
2013-9-5,79,65,55,67,60,54,100,86,62,28.79,24.95,6,0,0,0.01
2013-9-6,76,61,48,58,53,47,98,77,45,31.56,26.46,4,1,0,0.00
2013-9-7,80,62,49,65,57,49,100,86,57,32.19,26.50,2,0,0,0.00
2013-9-8,82,69,60,73,66,60,99,90,73,32.47,28.01,4,0,0,0.00
2013-9-9,86,72,61,77,70,61,100,91,72,32.46,25.70,4,0,0,0.00
2013-9-10,87,76,67,79,73,67,100,92,74,30.45,21.09,2,0,0,0.00
2013-9-11,84,74,69,79,73,69,100,97,85,30.08,23.01,3,0,0,0.11
2013-9-12,80,70,66,75,70,66,100,99,82,32.34,23.32,4,0,0,0.13
2013-9-13,70,61,51,67,58,49,100,89,67,32.50,27.84,5,1,0,0.02
2013-9-14,67,53,45,54,49,45,100,86,59,28.82,24.97,4,0,0,0.00
2013-9-15,73,58,45,63,55,45,100,90,66,32.20,26.50,2,0,0,0.01
2013-9-16,68,60,56,60,58,55,100,92,74,31.57,26.42,6,1,0,0.27
2013-9-17,72,59,48,61,53,48,100,82,49,32.21,24.97,5,1,0,0.00
2013-9-18,73,59,46,66,56,45,99,89,69,30.15,24.00,4,0,0,0.00
2013-9-19,79,66,62,68,64,61,100,92,69,32.17,25.65,3,0,0,0.05
2013-9-20,76,67,61,73,67,61,100,98,90,31.64,24.94,1,0,0,0.20
2013-9-21,69,63,58,69,63,58,100,100,98,32.19,25.91,7,0,0,0.93
2013-9-22,65,57,49,58,54,48,100,90,72,31.56,25.92,5,0,0,0.00
2013-9-23,58,50,44,52,47,43,100,90,72,29.42,28.76,3,0,0,0.00
2013-9-24,72,52,40,58,48,40,100,89,58,31.58,28.79,2,0,0,0.01
2013-9-25,75,59,47,65,56,47,100,91,69,30.12,26.44,3,0,0,0.00
2013-9-26,76,61,52,63,56,52,100,85,52,32.19,28.77,4,0,0,0.00
2013-9-27,76,59,48,61,54,48,100,85,54,28.83,25.71,3,0,0,0.01
2013-9-28,75,61,49,63,55,49,100,84,59,31.44,24.00,4,0,0,0.00
2013-9-29,76,61,50,64,56,50,99,86,66,32.20,25.69,3,0,0,0.00
2013-9-30,68,60,54,65,59,54,100,97,87,32.19,27.28,0,0,0,0.00
2013-10-1,78,63,55,68,61,55,100,92,64,32.18,28.00,4,0,0,0.01
2013-10-2,80,65,54,69,62,54,100,91,67,31.53,27.25,3,0,0,0.00
2013-10-3,82,68,58,72,65,59,100,92,71,32.17,26.48,2,0,0,0.03
2013-10-4,83,69,62,72,66,62,100,91,68,32.16,26.85,3,0,0,0.00
2013-10-5,83,71,62,73,67,62,100,90,68,32.16,25.72,6,0,0,0.00
2013-10-6,87,74,63,71,66,63,100,80,54,31.49,25.12,4,0,0,0.00
2013-10-7,70,57,46,63,53,45,100,87,66,31.96,27.20,11,1,0,0.27
2013-10-8,66,52,42,53,47,42,100,84,56,31.54,28.75,7,1,0,0.01
2013-10-9,70,53,41,53,45,41,100,77,41,28.87,28.76,9,1,0,0.00
2013-10-10,69,59,52,57,52,44,90,76,64,28.83,28.73,7,1,0,0.00
2013-10-11,58,56,54,58,55,53,98,95,89,28.83,28.03,5,1,0,0.07
2013-10-12,74,63,55,66,60,55,100,90,74,28.83,28.73,7,1,0,0.00
2013-10-13,74,66,58,65,60,57,93,83,69,28.81,27.19,4,1,0,0.00
2013-10-14,65,61,59,61,59,58,97,93,88,28.79,28.71,5,0,0,0.01
2013-10-15,73,61,52,64,58,52,100,91,70,31.64,28.04,3,0,0,0.01
2013-10-16,71,62,54,63,59,53,99,90,75,31.45,28.72,3,0,0,0.00
2013-10-17,62,57,49,61,57,49,100,99,96,28.83,28.73,11,0,0,0.16
2013-10-18,63,51,42,50,46,42,100,84,56,28.84,26.48,4,0,0,0.00
2013-10-19,54,44,36,50,43,35,100,96,86,28.88,26.48,10,0,0,0.01
2013-10-20,60,46,37,45,41,36,100,83,55,28.88,28.78,4,0,0,0.00
2013-10-21,68,50,34,49,41,34,98,76,44,28.89,28.77,5,0,0,0.00
2013-10-22,54,47,39,48,41,36,97,82,60,31.56,28.76,4,0,0,0.00
2013-10-23,40,38,34,40,37,34,99,97,93,28.89,28.79,3,0,0,0.00
2013-10-24,41,36,30,38,35,30,99,96,80,28.89,28.80,6,0,0,0.00
2013-10-25,46,34,28,38,32,27,99,92,70,28.89,28.80,3,0,0,0.00
2013-10-26,52,40,28,36,31,27,98,75,51,32.25,27.89,11,1,0,0.00
2013-10-27,56,45,33,40,36,31,94,72,54,31.59,28.78,5,0,0,0.00
2013-10-28,62,44,29,44,37,28,99,80,50,28.88,26.47,2,0,0,0.00
2013-10-29,61,46,30,45,39,30,99,80,52,32.25,28.77,3,0,0,0.00
2013-10-30,59,52,46,57,50,42,99,92,85,28.84,28.75,1,0,0,0.00
2013-10-31,69,60,56,62,58,57,100,93,71,28.83,28.74,3,0,0,0.00
2013-11-1,70,59,51,62,53,46,100,80,61,28.85,28.75,9,2,0,0.20
2013-11-2,53,49,44,47,44,40,91,83,70,28.85,28.75,6,1,0,0.01
2013-11-3,51,44,34,41,36,29,93,76,46,28.87,28.77,6,1,0,0.01
2013-11-4,52,40,29,34,31,27,94,73,51,28.87,26.52,4,1,0,0.00
2013-11-5,58,47,36,40,36,32,89,69,50,28.86,28.77,2,0,0,0.00
2013-11-6,74,59,38,57,50,36,96,73,53,28.87,28.74,6,1,0,0.00
2013-11-7,64,48,38,55,42,29,99,82,63,28.85,28.76,6,1,0,0.57
2013-11-8,47,38,29,35,30,26,90,74,57,31.55,25.00,8,1,0,0.00
2013-11-9,59,43,27,37,30,26,95,65,36,31.54,28.78,4,1,0,0.00
2013-11-10,51,45,34,38,33,28,77,63,48,28.88,28.76,11,2,0,0.00
2013-11-11,49,39,26,39,32,25,95,77,58,31.57,28.78,2,0,0,0.00
2013-11-12,45,31,26,41,28,22,96,87,70,31.61,28.78,9,1,0,0.14
2013-11-13,37,28,20,27,23,18,94,83,66,28.90,28.80,5,1,0,0.04
2013-11-14,52,35,23,30,25,20,91,68,41,31.63,28.79,5,1,0,0.00
2013-11-15,58,43,29,43,31,23,92,66,38,28.88,28.77,10,1,0,0.04
2013-11-16,64,51,37,55,48,37,99,88,73,28.86,28.75,2,0,0,0.00
2013-11-17,64,57,51,61,55,48,98,92,84,31.59,28.74,8,1,0,0.46
2013-11-18,56,49,41,51,40,30,98,72,52,30.15,28.75,8,3,0,0.00
2013-11-19,40,36,30,30,28,26,88,73,67,30.16,28.77,5,1,0,0.00
2013-11-20,40,32,27,26,23,19,92,71,43,28.90,28.81,3,1,0,0.00
2013-11-21,58,47,29,45,37,21,87,69,57,28.88,28.78,2,0,0,0.00
2013-11-22,54,51,40,54,50,39,100,96,79,31.49,28.14,7,1,0,0.29
2013-11-23,40,33,22,38,27,13,94,79,64,28.91,26.50,13,2,0,0.00
2013-11-24,26,20,14,15,11,9,84,68,55,28.92,28.83,9,2,0,0.00
2013-11-25,39,26,12,24,14,10,90,64,34,28.93,28.82,4,0,0,0.00
2013-11-26,38,35,32,36,34,26,99,96,63,31.59,27.92,9,1,0,1.25
2013-11-27,34,28,22,34,27,19,99,94,83,32.27,28.06,6,1,0,0.01
2013-11-28,31,26,21,25,22,17,91,83,75,30.87,28.83,5,1,0,0.06
2013-11-29,39,31,25,28,25,23,92,81,60,28.90,27.29,3,0,0,0.05
2013-11-30,48,31,21,35,26,20,95,83,60,28.91,28.81,3,0,0,0.00
2013-12-1,47,38,28,38,32,26,92,79,64,31.59,28.80,3,0,0,0.02
2013-12-2,51,44,38,42,38,34,90,80,67,28.87,28.76,2,0,0,0.00
2013-12-3,58,46,37,46,40,35,94,81,61,28.85,28.77,3,0,0,0.00
2013-12-4,64,50,37,53,45,36,97,84,66,28.86,28.77,1,0,0,0.00
2013-12-5,68,57,45,61,55,44,100,92,77,28.84,28.75,7,1,0,1.02
2013-12-6,44,36,30,44,35,30,98,97,94,28.89,28.78,7,2,0,0.82
2013-12-7,30,28,24,29,25,20,96,90,83,28.90,28.81,4,1,0,0.00
2013-12-8,33,27,22,32,25,19,96,91,85,28.92,27.34,5,2,0,0.00
2013-12-9,39,35,31,39,34,29,100,96,88,32.26,28.80,10,1,0,0.28
2013-12-10,31,28,25,29,24,19,95,85,74,28.91,28.83,8,1,0,0.00
2013-12-11,34,27,18,23,20,16,90,76,61,28.93,27.32,10,1,0,0.01
2013-12-12,27,21,15,20,12,8,83,68,55,32.20,27.33,7,2,0,0.00
2013-12-13,38,29,20,22,17,11,72,63,52,28.91,28.80,3,1,0,0.00
2013-12-14,41,36,30,41,33,22,99,90,69,31.60,28.79,5,0,0,0.35
2013-12-15,41,32,27,41,29,24,99,91,82,31.55,23.46,7,3,0,0.03
2013-12-16,30,28,25,29,26,23,96,93,87,28.92,28.82,4,1,0,0.02
2013-12-17,35,32,29,34,31,26,98,94,86,28.91,28.80,7,1,0,0.12
2013-12-18,34,28,25,26,24,22,90,84,71,28.90,28.82,11,2,0,0.00
2013-12-19,58,39,26,42,23,-100,88,64,49,28.91,26.51,11,-52,0,0.01
2013-12-20,60,49,37,51,41,30,99,75,58,28.88,28.77,4,0,0,0.03
2013-12-21,63,58,53,59,56,52,100,92,85,32.09,28.04,3,0,0,0.26
2013-12-22,70,59,56,63,57,53,100,92,76,28.84,28.04,13,2,0,0.30
2013-12-23,56,40,31,53,38,25,99,92,79,28.87,27.25,9,1,0,0.20
2013-12-24,30,24,16,25,18,11,92,78,60,28.92,28.80,13,2,0,0.00
2013-12-25,36,24,15,22,16,10,85,71,54,28.94,28.86,2,0,0,0.00
2013-12-26,40,32,28,30,25,20,95,76,57,28.90,28.85,11,1,0,0.03
2013-12-27,45,32,23,28,23,19,88,71,48,28.91,28.85,7,0,0,0.00
2013-12-28,51,38,28,34,28,22,79,66,50,28.89,28.84,4,0,0,0.00
2013-12-29,43,40,36,43,39,29,100,94,71,28.86,28.83,6,1,0,0.84
2013-12-30,39,30,25,38,28,22,98,93,87,28.88,28.84,6,1,0,0.01
2013-12-31,28,26,23,26,22,19,95,84,76,31.56,28.12,8,2,0,0.00
2014-1-1,46,32,19,31,24,18,94,77,50,30.22,28.82,4,0,0,0.01
2014-1-2,33,28,16,31,26,13,96,92,86,28.91,28.82,3,0,0,0.10